createdAt,value
2023-03-03T00:03:55.041Z,0.57
2023-03-03T00:08:59.968Z,0.72
2023-03-03T00:14:03.418Z,0.70
2023-03-03T00:19:15.649Z,0.58
2023-03-03T00:24:22.956Z,0.69
2023-03-03T00:29:31.875Z,0.68
2023-03-03T00:34:35.790Z,0.81
2023-03-03T00:39:40.764Z,0.71
2023-03-03T00:44:44.869Z,0.61
2023-03-03T00:49:48.001Z,0.70
2023-03-03T00:54:52.598Z,0.58
2023-03-03T00:59:55.888Z,0.73
2023-03-03T01:04:59.246Z,0.78
2023-03-03T01:10:03.791Z,0.56
2023-03-03T01:15:08.337Z,0.51
2023-03-03T01:20:14.258Z,0.66
2023-03-03T01:25:19.161Z,0.46
2023-03-03T01:30:22.640Z,0.57
2023-03-03T01:35:26.252Z,0.40
2023-03-03T01:40:36.757Z,0.57
2023-03-03T01:46:06.870Z,0.67
2023-03-03T01:51:20.173Z,0.31
2023-03-03T01:56:25.914Z,0.23
2023-03-03T02:01:31.094Z,0.38
2023-03-03T02:06:39.050Z,0.09
2023-03-03T02:11:45.789Z,0.28
2023-03-03T02:16:49.045Z,0.26
2023-03-03T02:21:53.282Z,0.37
2023-03-03T02:26:58.355Z,0.04
2023-03-03T02:32:02.160Z,0.31
2023-03-03T02:37:05.491Z,0.24
2023-03-03T02:42:17.267Z,0.30
2023-03-03T02:47:25.815Z,0.30
2023-03-03T02:52:29.303Z,0.46
2023-03-03T02:57:33.830Z,0.49
2023-03-03T03:02:37.259Z,0.67
2023-03-03T03:07:40.746Z,0.87
2023-03-03T03:12:45.907Z,0.85
2023-03-03T03:17:50.203Z,0.82
2023-03-03T03:22:53.736Z,0.66
2023-03-03T03:27:58.616Z,0.77
2023-03-03T03:33:02.085Z,0.91
2023-03-03T03:38:05.569Z,0.91
2023-03-03T03:43:10.355Z,0.74
2023-03-03T03:48:13.752Z,0.35
2023-03-03T03:53:17.726Z,0.53
2023-03-03T03:58:23.313Z,0.51
2023-03-03T04:03:35.229Z,0.44
2023-03-03T04:08:41.992Z,0.40
2023-03-03T04:13:47.810Z,0.22
2023-03-03T04:18:51.161Z,0.37
2023-03-03T04:23:54.595Z,0.24
2023-03-03T04:29:00.236Z,0.57
2023-03-03T04:34:03.489Z,0.44
2023-03-03T04:39:07.229Z,0.72
2023-03-03T04:44:12.161Z,0.60
2023-03-03T04:49:15.609Z,0.76
2023-03-03T04:54:19.928Z,0.67
2023-03-03T04:59:24.643Z,0.25
2023-03-03T05:04:28.022Z,-0.12
2023-03-03T05:09:32.537Z,-0.05
2023-03-03T05:14:38.059Z,0.01
2023-03-03T05:19:41.620Z,-0.02
2023-03-03T05:24:49.204Z,-0.19
2023-03-03T05:29:54.001Z,-0.17
2023-03-03T05:34:57.290Z,-0.35
2023-03-03T05:40:00.908Z,-0.21
2023-03-03T05:45:06.252Z,-0.22
2023-03-03T05:50:12.236Z,-0.35
2023-03-03T05:55:15.618Z,-0.37
2023-03-03T06:00:21.488Z,-0.17
2023-03-03T06:05:24.695Z,-0.59
2023-03-03T06:10:28.364Z,-0.26
2023-03-03T06:15:36.388Z,0.05
2023-03-03T06:20:39.850Z,0.08
2023-03-03T06:25:43.232Z,-0.32
2023-03-03T06:30:53.971Z,-0.07
2023-03-03T06:35:57.556Z,0.02
2023-03-03T06:41:02.207Z,-0.42
2023-03-03T06:46:07.459Z,-0.34
2023-03-03T06:51:23.648Z,-0.68
2023-03-03T06:56:28.152Z,-0.60
2023-03-03T07:01:37.396Z,-0.59
2023-03-03T07:06:40.496Z,-0.52
2023-03-03T07:11:46.219Z,-0.19
2023-03-03T07:16:57.795Z,-0.05
2023-03-03T07:22:05.559Z,-0.17
2023-03-03T07:27:13.674Z,-0.19
2023-03-03T07:32:27.359Z,-0.19
2023-03-03T07:37:36.276Z,0.06
2023-03-03T07:42:41.897Z,0.29
2023-03-03T07:48:05.513Z,0.29
2023-03-03T07:53:16.047Z,-0.13
2023-03-03T07:58:25.263Z,0.22
2023-03-03T08:03:29.889Z,0.19
2023-03-03T08:08:37.158Z,-0.55
2023-03-03T08:13:43.092Z,-0.26
2023-03-03T08:18:49.582Z,-0.12
2023-03-03T08:23:53.803Z,-0.38
2023-03-03T08:28:57.107Z,0.02
2023-03-03T08:34:03.516Z,-0.24
2023-03-03T08:39:07.173Z,-0.38
2023-03-03T08:44:10.495Z,0.06
2023-03-03T08:49:15.207Z,-0.34
2023-03-03T08:54:18.364Z,-0.06
2023-03-03T08:59:22.405Z,-0.51
2023-03-03T09:04:27.628Z,-0.37
2023-03-03T09:09:30.967Z,-0.57
2023-03-03T09:14:34.196Z,0.07
2023-03-03T09:19:38.906Z,0.18
2023-03-03T09:24:43.906Z,0.24
2023-03-03T09:29:47.177Z,0.00
2023-03-03T09:34:52.184Z,0.31
2023-03-03T09:39:57.525Z,-0.28
2023-03-03T09:45:37.397Z,-0.44
2023-03-03T09:50:54.102Z,0.15
2023-03-03T09:56:04.283Z,0.28
2023-03-03T10:01:30.321Z,0.37
2023-03-03T10:06:39.041Z,0.83
2023-03-03T10:11:50.406Z,0.90
2023-03-03T10:17:19.331Z,0.75
2023-03-03T10:22:29.808Z,0.76
2023-03-03T10:27:49.612Z,0.84
2023-03-03T10:32:59.415Z,1.17
2023-03-03T10:38:35.472Z,1.24
2023-03-03T10:43:57.961Z,1.14
2023-03-03T10:49:23.247Z,0.83
2023-03-03T10:54:44.676Z,0.13
2023-03-03T10:59:59.120Z,0.37
2023-03-03T11:05:24.105Z,0.87
2023-03-03T11:10:55.211Z,0.61
2023-03-03T11:16:15.224Z,1.15
2023-03-03T11:21:25.943Z,1.09
2023-03-03T11:26:58.697Z,0.99
2023-03-03T11:32:12.505Z,1.38
2023-03-03T11:37:23.205Z,1.56
2023-03-03T11:42:40.984Z,1.36
2023-03-03T11:47:53.711Z,1.02
2023-03-03T11:53:10.333Z,1.42
2023-03-03T11:58:20.638Z,1.22
2023-03-03T12:03:36.340Z,1.37
2023-03-03T12:09:10.687Z,1.24
2023-03-03T12:14:28.142Z,1.27
2023-03-03T12:19:36.866Z,1.17
2023-03-03T12:24:57.480Z,0.17
2023-03-03T12:30:13.340Z,0.74
2023-03-03T12:35:25.559Z,1.14
2023-03-03T12:40:35.132Z,1.21
2023-03-03T12:45:49.269Z,1.67
2023-03-03T12:51:03.585Z,1.13
2023-03-03T12:56:09.420Z,1.28
2023-03-03T13:01:28.504Z,0.77
2023-03-03T13:06:35.205Z,1.07
2023-03-03T13:12:02.001Z,1.65
2023-03-03T13:17:17.007Z,1.38
2023-03-03T13:22:33.250Z,0.79
2023-03-03T13:27:41.418Z,1.02
2023-03-03T13:32:54.117Z,0.59
2023-03-03T13:37:58.967Z,1.00
2023-03-03T13:43:06.558Z,0.88
2023-03-03T13:48:28.274Z,0.82
2023-03-03T13:53:48.648Z,0.98
2023-03-03T13:59:02.638Z,1.41
2023-03-03T14:04:17.217Z,1.39
2023-03-03T14:09:33.101Z,1.35
2023-03-03T14:14:48.762Z,1.84
2023-03-03T14:20:03.313Z,1.82
2023-03-03T14:25:09.919Z,2.01
2023-03-03T14:30:31.087Z,1.53
2023-03-03T14:35:38.113Z,1.64
2023-03-03T14:40:45.425Z,1.44
2023-03-03T14:45:48.787Z,1.58
2023-03-03T14:50:54.840Z,1.41
2023-03-03T14:56:16.864Z,1.19
2023-03-03T15:01:25.556Z,1.15
2023-03-03T15:06:41.547Z,1.10
2023-03-03T15:11:45.653Z,1.05
2023-03-03T15:16:48.960Z,1.24
2023-03-03T15:22:04.954Z,0.38
2023-03-03T15:27:13.670Z,1.03
2023-03-03T15:32:24.266Z,1.17
2023-03-03T15:37:43.116Z,1.19
2023-03-03T15:42:50.321Z,1.07
2023-03-03T15:48:15.130Z,1.28
2023-03-03T15:53:56.377Z,1.52
2023-03-03T15:59:42.321Z,1.21
2023-03-03T16:04:54.205Z,1.00
2023-03-03T16:10:06.230Z,0.93
2023-03-03T16:15:23.991Z,0.57
2023-03-03T16:20:34.493Z,0.50
2023-03-03T16:25:56.026Z,0.52
2023-03-03T16:31:10.592Z,0.29
2023-03-03T16:36:24.368Z,0.16
2023-03-03T16:41:34.657Z,0.49
2023-03-03T16:46:42.606Z,0.25
2023-03-03T16:51:52.930Z,0.51
2023-03-03T16:57:06.852Z,0.33
2023-03-03T17:02:28.619Z,0.30
2023-03-03T17:07:44.801Z,0.27
2023-03-03T17:12:58.226Z,0.09
2023-03-03T17:18:13.641Z,-0.34
2023-03-03T17:23:33.327Z,-0.03
2023-03-03T17:28:50.577Z,-0.12
2023-03-03T17:34:17.325Z,0.09
2023-03-03T17:39:48.649Z,-0.20
2023-03-03T17:45:00.745Z,-0.55
2023-03-03T17:50:14.296Z,-0.56
2023-03-03T17:55:40.322Z,-0.27
2023-03-03T18:00:54.383Z,-0.11
2023-03-03T18:06:41.194Z,-0.15
2023-03-03T18:12:00.291Z,0.00
2023-03-03T18:17:21.546Z,-0.06
2023-03-03T18:22:33.552Z,-0.19
2023-03-03T18:27:39.605Z,-0.21
2023-03-03T18:32:44.577Z,-0.40
2023-03-03T18:37:49.901Z,-0.41
2023-03-03T18:42:54.043Z,-0.28
2023-03-03T18:48:06.457Z,-0.51
2023-03-03T18:53:22.507Z,-0.77
2023-03-03T18:58:37.445Z,-0.60
2023-03-03T19:04:04.519Z,-0.82
2023-03-03T19:09:13.036Z,-0.54
2023-03-03T19:14:25.767Z,-0.58
2023-03-03T19:19:34.345Z,-0.76
2023-03-03T19:24:39.238Z,-1.11
2023-03-03T19:30:22.731Z,-0.96
2023-03-03T19:35:34.263Z,-0.99
2023-03-03T19:40:50.208Z,-1.20
2023-03-03T19:46:18.018Z,-1.01
2023-03-03T19:51:35.101Z,-1.20
2023-03-03T19:56:47.124Z,-0.71
2023-03-03T20:02:12.213Z,-0.74
2023-03-03T20:07:29.128Z,-0.81
2023-03-03T20:12:53.248Z,-0.84
2023-03-03T20:18:15.701Z,-0.96
2023-03-03T20:23:24.442Z,-1.23
2023-03-03T20:28:49.526Z,-1.12
2023-03-03T20:34:06.418Z,-0.95
2023-03-03T20:39:13.019Z,-0.80
2023-03-03T20:44:30.201Z,-0.81
2023-03-03T20:49:56.793Z,-0.81
2023-03-03T20:55:11.051Z,-0.93
2023-03-03T21:00:23.492Z,-0.89
2023-03-03T21:05:28.060Z,-0.84
2023-03-03T21:10:36.032Z,-0.56
2023-03-03T21:15:40.763Z,-0.68
2023-03-03T21:20:44.027Z,-0.79
2023-03-03T21:25:52.442Z,-0.69
2023-03-03T21:31:18.447Z,-0.64
2023-03-03T21:36:24.614Z,-0.71
2023-03-03T21:41:27.955Z,-0.81
2023-03-03T21:46:32.984Z,-0.99
2023-03-03T21:51:36.709Z,-1.39
2023-03-03T21:56:42.328Z,-0.72
2023-03-03T22:01:48.140Z,-0.61
2023-03-03T22:06:52.840Z,-0.66
2023-03-03T22:11:56.417Z,-0.62
2023-03-03T22:17:01.509Z,-0.50
2023-03-03T22:22:04.872Z,-0.49
2023-03-03T22:27:09.221Z,-0.49
2023-03-03T22:32:16.687Z,-0.41
2023-03-03T22:37:19.976Z,-0.50
2023-03-03T22:42:27.068Z,-0.48
2023-03-03T22:47:32.630Z,-0.22
2023-03-03T22:52:36.040Z,-0.20
2023-03-03T22:57:40.429Z,-0.37
2023-03-03T23:02:44.941Z,-0.08
2023-03-03T23:07:48.053Z,-0.04
2023-03-03T23:12:51.282Z,-0.03
2023-03-03T23:17:57.157Z,-0.05
2023-03-03T23:23:00.525Z,-0.24
2023-03-03T23:28:04.160Z,0.02
2023-03-03T23:33:09.272Z,-0.01
2023-03-03T23:38:15.946Z,0.24
2023-03-03T23:43:19.328Z,0.16
2023-03-03T23:48:26.260Z,0.14
2023-03-03T23:53:29.505Z,0.26
2023-03-03T23:58:32.675Z,0.18
